createdAt,value
2022-11-09T00:01:57.152Z,97770.70
2022-11-09T00:04:27.817Z,97774.92
2022-11-09T00:06:58.418Z,97770.15
2022-11-09T00:09:29.037Z,97772.05
2022-11-09T00:12:00.134Z,97780.99
2022-11-09T00:14:30.745Z,97785.83
2022-11-09T00:19:26.600Z,97800.08
2022-11-09T00:21:57.297Z,97797.12
2022-11-09T00:24:29.090Z,97790.58
2022-11-09T00:27:00.523Z,97789.73
2022-11-09T00:45:49.296Z,97779.55
2022-11-09T00:48:19.785Z,97768.28
2022-11-09T00:50:53.215Z,97775.89
2022-11-09T00:53:24.665Z,97785.69
2022-11-09T00:55:59.887Z,97798.06
2022-11-09T00:58:32.124Z,97800.96
2022-11-09T01:01:08.690Z,97806.41
2022-11-09T01:03:39.335Z,97815.91
2022-11-09T01:06:14.290Z,97823.80
2022-11-09T01:08:47.421Z,97824.50
2022-11-09T01:11:20.285Z,97815.65
2022-11-09T01:13:51.193Z,97801.60
2022-11-09T01:16:22.859Z,97798.29
2022-11-09T01:18:56.967Z,97790.76
2022-11-09T01:21:30.558Z,97792.17
2022-11-09T01:24:03.853Z,97803.30
2022-11-09T01:26:34.505Z,97804.34
2022-11-09T01:29:05.160Z,97803.75
2022-11-09T01:31:36.933Z,97807.00
2022-11-09T01:34:07.401Z,97810.55
2022-11-09T01:36:37.715Z,97809.19
2022-11-09T01:39:08.165Z,97818.75
2022-11-09T01:41:42.100Z,97818.11
2022-11-09T01:44:14.576Z,97817.13
2022-11-09T01:46:50.787Z,97820.84
2022-11-09T01:49:28.770Z,97824.58
2022-11-09T01:52:02.371Z,97827.11
2022-11-09T01:54:37.762Z,97826.00
2022-11-09T01:57:11.354Z,97824.38
2022-11-09T01:59:45.922Z,97821.41
2022-11-09T02:02:16.490Z,97821.45
2022-11-09T02:04:50.657Z,97817.91
2022-11-09T02:07:21.866Z,97813.34
2022-11-09T02:09:56.981Z,97809.25
2022-11-09T02:12:29.195Z,97803.79
2022-11-09T02:15:00.183Z,97803.70
2022-11-09T02:17:31.333Z,97805.52
2022-11-09T02:20:03.646Z,97800.26
2022-11-09T02:22:34.806Z,97801.74
2022-11-09T02:25:05.580Z,97801.84
2022-11-09T02:27:36.240Z,97795.79
2022-11-09T02:30:09.548Z,97792.32
2022-11-09T02:32:40.046Z,97792.09
2022-11-09T02:35:12.038Z,97785.29
2022-11-09T02:37:46.256Z,97773.98
2022-11-09T02:40:20.360Z,97770.97
2022-11-09T02:42:51.116Z,97763.51
2022-11-09T02:45:21.637Z,97764.86
2022-11-09T02:47:52.011Z,97765.35
2022-11-09T02:50:22.546Z,97759.44
2022-11-09T02:52:53.025Z,97753.83
2022-11-09T02:55:23.989Z,97751.73
2022-11-09T02:57:54.333Z,97751.02
2022-11-09T03:00:24.703Z,97751.91
2022-11-09T03:02:56.360Z,97752.91
2022-11-09T03:05:27.183Z,97746.67
2022-11-09T03:07:57.782Z,97735.42
2022-11-09T03:10:28.264Z,97725.33
2022-11-09T03:12:58.934Z,97736.54
2022-11-09T03:15:30.078Z,97725.54
2022-11-09T03:18:00.547Z,97727.21
2022-11-09T03:20:30.953Z,97724.56
2022-11-09T03:23:01.846Z,97729.20
2022-11-09T03:25:32.717Z,97740.08
2022-11-09T03:28:04.814Z,97748.31
2022-11-09T03:30:36.438Z,97758.41
2022-11-09T03:33:10.001Z,97765.27
2022-11-09T03:35:40.640Z,97771.96
2022-11-09T03:38:11.231Z,97785.04
2022-11-09T03:40:42.252Z,97783.56
2022-11-09T03:43:12.652Z,97791.66
2022-11-09T03:45:44.312Z,97806.80
2022-11-09T03:48:14.829Z,97811.27
2022-11-09T03:50:45.183Z,97814.67
2022-11-09T03:53:15.924Z,97812.17
2022-11-09T03:55:46.520Z,97808.13
2022-11-09T03:58:17.016Z,97809.28
2022-11-09T04:00:47.406Z,97809.20
2022-11-09T04:03:18.110Z,97810.20
2022-11-09T04:05:48.828Z,97811.34
2022-11-09T04:08:19.233Z,97812.83
2022-11-09T04:10:49.692Z,97818.30
2022-11-09T04:13:20.345Z,97818.05
2022-11-09T04:15:51.073Z,97814.73
2022-11-09T04:18:21.495Z,97819.39
2022-11-09T04:20:51.909Z,97823.67
2022-11-09T04:23:22.731Z,97818.96
2022-11-09T04:25:53.310Z,97818.58
2022-11-09T04:28:23.837Z,97819.77
2022-11-09T04:30:54.338Z,97819.23
2022-11-09T04:33:24.687Z,97821.71
2022-11-09T04:35:55.103Z,97822.63
2022-11-09T04:38:25.405Z,97824.36
2022-11-09T04:40:55.828Z,97818.66
2022-11-09T04:43:26.194Z,97817.60
2022-11-09T04:45:56.758Z,97813.64
2022-11-09T04:48:27.146Z,97811.60
2022-11-09T04:51:02.593Z,97808.33
2022-11-09T04:53:33.332Z,97807.50
2022-11-09T04:56:03.967Z,97804.56
2022-11-09T04:58:34.683Z,97804.38
2022-11-09T05:01:09.401Z,97801.95
2022-11-09T05:03:40.311Z,97802.83
2022-11-09T05:06:24.761Z,97795.57
2022-11-09T05:08:55.507Z,97792.30
2022-11-09T05:11:26.053Z,97788.34
2022-11-09T05:13:56.411Z,97783.30
2022-11-09T05:16:27.389Z,97777.56
2022-11-09T05:18:57.827Z,97778.96
2022-11-09T05:21:28.229Z,97783.48
2022-11-09T05:24:01.402Z,97782.13
2022-11-09T05:26:33.369Z,97775.11
2022-11-09T05:29:05.027Z,97781.94
2022-11-09T05:31:35.752Z,97779.16
2022-11-09T05:34:07.460Z,97774.13
2022-11-09T05:36:37.821Z,97777.60
2022-11-09T05:39:08.481Z,97772.40
2022-11-09T05:41:38.926Z,97775.71
2022-11-09T05:44:09.315Z,97779.92
2022-11-09T05:46:39.783Z,97778.20
2022-11-09T05:49:10.284Z,97778.60
2022-11-09T05:51:40.712Z,97776.01
2022-11-09T05:54:11.152Z,97776.17
2022-11-09T05:56:41.507Z,97769.23
2022-11-09T05:59:12.173Z,97774.08
2022-11-09T06:01:42.607Z,97774.13
2022-11-09T06:04:13.057Z,97776.46
2022-11-09T06:06:45.506Z,97778.21
2022-11-09T06:09:16.001Z,97773.72
2022-11-09T06:11:46.440Z,97774.26
2022-11-09T06:14:16.880Z,97777.23
2022-11-09T06:16:47.233Z,97784.53
2022-11-09T06:19:17.714Z,97784.40
2022-11-09T06:21:48.041Z,97786.88
2022-11-09T06:24:18.490Z,97787.45
2022-11-09T06:26:48.912Z,97798.27
2022-11-09T06:29:19.751Z,97811.84
2022-11-09T06:31:51.347Z,97819.49
2022-11-09T06:34:21.902Z,97821.44
2022-11-09T06:36:52.417Z,97826.86
2022-11-09T06:39:23.267Z,97826.05
2022-11-09T06:41:53.647Z,97820.91
2022-11-09T06:44:24.117Z,97819.70
2022-11-09T06:46:54.482Z,97826.42
2022-11-09T06:49:25.076Z,97822.99
2022-11-09T06:51:55.475Z,97823.52
2022-11-09T06:54:25.957Z,97827.03
2022-11-09T06:56:57.497Z,97825.17
2022-11-09T06:59:27.923Z,97822.23
2022-11-09T07:02:01.624Z,97829.48
2022-11-09T07:04:32.693Z,97834.10
2022-11-09T07:07:03.852Z,97836.00
2022-11-09T07:09:34.338Z,97839.47
2022-11-09T07:12:05.174Z,97846.91
2022-11-09T07:14:35.648Z,97852.93
2022-11-09T07:17:06.054Z,97856.38
2022-11-09T07:19:36.532Z,97860.16
2022-11-09T07:22:06.997Z,97864.60
2022-11-09T07:24:37.900Z,97863.35
2022-11-09T07:27:08.879Z,97866.98
2022-11-09T07:29:39.755Z,97867.61
2022-11-09T07:32:10.206Z,97871.02
2022-11-09T07:34:40.662Z,97870.09
2022-11-09T07:37:11.111Z,97865.89
2022-11-09T07:39:42.102Z,97864.98
2022-11-09T07:42:12.589Z,97868.25
2022-11-09T07:44:44.716Z,97867.18
2022-11-09T07:47:18.304Z,97869.90
2022-11-09T07:49:48.987Z,97876.77
2022-11-09T07:52:19.338Z,97870.69
2022-11-09T07:54:52.266Z,97864.73
2022-11-09T07:57:24.653Z,97878.11
2022-11-09T07:59:58.059Z,97888.56
2022-11-09T08:02:31.249Z,97882.73
2022-11-09T08:05:03.836Z,97882.36
2022-11-09T08:07:34.355Z,97883.36
2022-11-09T08:10:06.552Z,97886.83
2022-11-09T08:12:38.164Z,97892.23
2022-11-09T08:15:11.901Z,97898.02
2022-11-09T08:17:44.710Z,97894.75
2022-11-09T08:20:17.907Z,97890.45
2022-11-09T08:22:51.244Z,97887.52
2022-11-09T08:25:21.885Z,97892.05
2022-11-09T08:27:54.001Z,97892.94
2022-11-09T08:30:26.397Z,97895.92
2022-11-09T08:32:59.071Z,97897.27
2022-11-09T08:35:29.933Z,97896.06
2022-11-09T08:38:04.198Z,97904.40
2022-11-09T08:40:36.939Z,97904.78
2022-11-09T08:43:11.537Z,97908.59
2022-11-09T08:45:43.723Z,97905.90
2022-11-09T08:48:17.634Z,97907.77
2022-11-09T08:50:55.013Z,97906.68
2022-11-09T08:53:28.680Z,97905.35
2022-11-09T09:02:59.279Z,97901.89
2022-11-09T09:05:29.760Z,97901.73
2022-11-09T09:08:01.408Z,97901.92
2022-11-09T09:10:32.492Z,97901.36
2022-11-09T09:13:03.120Z,97901.16
2022-11-09T09:15:33.916Z,97898.95
2022-11-09T09:18:05.277Z,97898.98
2022-11-09T09:20:35.680Z,97899.93
2022-11-09T09:23:06.303Z,97902.95
2022-11-09T09:25:36.733Z,97906.42
2022-11-09T09:28:07.841Z,97907.42
2022-11-09T09:30:38.575Z,97910.61
2022-11-09T09:33:08.987Z,97910.35
2022-11-09T09:35:39.436Z,97916.30
2022-11-09T09:38:09.804Z,97917.89
2022-11-09T09:40:51.296Z,97919.71
2022-11-09T09:43:28.604Z,97917.69
2022-11-09T09:46:00.839Z,97919.02
2022-11-09T09:48:36.711Z,97923.78
2022-11-09T09:51:12.529Z,97924.96
2022-11-09T09:53:46.537Z,97923.73
2022-11-09T09:56:21.982Z,97929.09
2022-11-09T09:58:56.973Z,97934.48
2022-11-09T10:01:35.453Z,97934.98
2022-11-09T10:04:06.452Z,97936.10
2022-11-09T10:06:44.632Z,97936.59
2022-11-09T10:09:24.663Z,97935.66
2022-11-09T10:12:01.582Z,97940.56
2022-11-09T10:14:44.583Z,97937.66
2022-11-09T10:17:23.268Z,97934.95
2022-11-09T10:20:01.158Z,97931.71
2022-11-09T10:22:38.536Z,97922.05
2022-11-09T10:28:13.031Z,97925.88
2022-11-09T10:30:44.066Z,97932.79
2022-11-09T10:33:21.238Z,97933.00
2022-11-09T10:35:56.454Z,97928.15
2022-11-09T10:38:29.197Z,97930.73
2022-11-09T10:41:28.214Z,97927.69
2022-11-09T10:44:18.976Z,97926.98
2022-11-09T10:47:11.209Z,97926.77
2022-11-09T10:50:15.046Z,97925.91
2022-11-09T10:53:18.070Z,97927.06
2022-11-09T10:56:20.722Z,97920.27
2022-11-09T11:02:05.805Z,97912.45
2022-11-09T11:04:55.180Z,97906.44
2022-11-09T11:07:44.851Z,97906.73
2022-11-09T11:10:34.249Z,97912.84
2022-11-09T11:13:25.673Z,97917.22
2022-11-09T11:16:26.677Z,97918.35
2022-11-09T11:19:36.897Z,97919.45
2022-11-09T11:22:27.507Z,97916.90
2022-11-09T11:25:22.692Z,97922.09
2022-11-09T11:28:19.921Z,97925.44
2022-11-09T11:31:14.089Z,97924.26
2022-11-09T11:34:04.124Z,97924.64
2022-11-09T11:37:02.372Z,97920.98
2022-11-09T11:40:02.323Z,97919.66
2022-11-09T11:43:28.749Z,97916.97
2022-11-09T11:46:22.407Z,97913.83
2022-11-09T11:49:27.700Z,97912.67
2022-11-09T11:52:23.790Z,97912.21
2022-11-09T11:55:31.194Z,97913.30
2022-11-09T11:58:30.664Z,97912.70
2022-11-09T12:01:32.892Z,97912.81
2022-11-09T12:04:45.074Z,97908.83
2022-11-09T12:07:39.188Z,97905.86
2022-11-09T12:10:44.551Z,97905.80
2022-11-09T12:13:49.609Z,97902.73
2022-11-09T12:16:45.520Z,97898.93
2022-11-09T12:20:11.312Z,97899.94
2022-11-09T12:23:15.421Z,97901.61
2022-11-09T12:26:16.208Z,97901.75
2022-11-09T12:29:14.973Z,97902.88
2022-11-09T12:32:11.581Z,97897.39
2022-11-09T12:35:14.386Z,97902.30
2022-11-09T12:38:05.981Z,97899.13
2022-11-09T12:41:00.427Z,97901.33
2022-11-09T12:43:53.372Z,97900.68
2022-11-09T12:46:45.590Z,97904.58
2022-11-09T12:49:38.383Z,97900.08
2022-11-09T12:52:29.992Z,97901.13
2022-11-09T12:55:22.197Z,97906.70
2022-11-09T12:58:23.378Z,97909.56
2022-11-09T13:01:15.346Z,97910.80
2022-11-09T13:04:05.463Z,97912.57
2022-11-09T13:07:29.441Z,97912.55
2022-11-09T13:10:31.662Z,97913.47
2022-11-09T13:13:26.140Z,97910.45
2022-11-09T13:16:34.627Z,97909.35
2022-11-09T13:19:54.310Z,97919.77
2022-11-09T13:23:02.961Z,97919.35
2022-11-09T13:25:53.871Z,97916.13
2022-11-09T13:29:13.460Z,97918.48
2022-11-09T13:32:24.868Z,97917.15
2022-11-09T13:35:44.860Z,97919.66
2022-11-09T13:38:34.904Z,97923.48
2022-11-09T13:41:47.525Z,97919.50
2022-11-09T13:44:38.838Z,97920.38
2022-11-09T13:47:34.889Z,97919.42
2022-11-09T13:50:25.417Z,97923.43
2022-11-09T13:56:24.771Z,97922.67
2022-11-09T13:59:22.091Z,97923.63
2022-11-09T14:02:20.689Z,97924.52
2022-11-09T14:05:27.324Z,97929.23
2022-11-09T14:08:22.833Z,97932.69
2022-11-09T14:11:31.633Z,97930.87
2022-11-09T14:14:50.181Z,97935.14
2022-11-09T14:17:46.260Z,97933.69
2022-11-09T14:20:41.638Z,97936.58
2022-11-09T14:23:33.149Z,97938.54
2022-11-09T14:26:25.364Z,97941.46
2022-11-09T14:29:23.548Z,97944.65
2022-11-09T14:32:31.342Z,97942.45
2022-11-09T14:35:26.955Z,97946.20
2022-11-09T14:38:23.487Z,97950.20
2022-11-09T14:41:22.814Z,97946.95
2022-11-09T14:44:17.761Z,97948.31
2022-11-09T14:47:07.584Z,97951.46
2022-11-09T14:49:56.748Z,97950.45
2022-11-09T14:52:46.017Z,97955.22
2022-11-09T14:55:36.689Z,97957.31
2022-11-09T14:58:25.971Z,97960.64
2022-11-09T15:01:24.148Z,97964.16
2022-11-09T15:04:16.957Z,97967.77
2022-11-09T15:07:07.007Z,97968.91
2022-11-09T15:09:58.613Z,97975.98
2022-11-09T15:12:52.192Z,97974.23
2022-11-09T15:15:41.497Z,97972.65
2022-11-09T15:18:34.169Z,97965.97
2022-11-09T15:21:36.482Z,97966.20
2022-11-09T15:24:28.100Z,97963.22
2022-11-09T15:27:34.817Z,97965.72
2022-11-09T15:30:32.993Z,97966.44
2022-11-09T15:33:26.551Z,97965.47
2022-11-09T15:36:28.107Z,97963.59
2022-11-09T15:39:20.131Z,97964.16
2022-11-09T15:42:12.556Z,97964.42
2022-11-09T15:45:02.001Z,97966.16
2022-11-09T15:47:56.780Z,97973.08
2022-11-09T15:50:46.035Z,97972.34
2022-11-09T15:53:35.164Z,97978.69
2022-11-09T15:56:25.623Z,97975.66
2022-11-09T15:59:19.760Z,97976.83
2022-11-09T16:02:09.740Z,97972.45
2022-11-09T16:04:59.077Z,97974.97
2022-11-09T16:07:52.367Z,97977.08
2022-11-09T16:10:43.387Z,97977.85
2022-11-09T16:13:32.273Z,97976.55
2022-11-09T16:16:22.552Z,97984.29
2022-11-09T16:19:15.629Z,97991.87
2022-11-09T16:22:03.317Z,97999.89
2022-11-09T16:24:52.182Z,98001.71
2022-11-09T16:27:50.895Z,98010.61
2022-11-09T16:30:45.449Z,98016.90
2022-11-09T16:33:35.685Z,98022.02
2022-11-09T16:36:26.547Z,98024.39
2022-11-09T16:39:17.123Z,98033.10
2022-11-09T16:42:08.981Z,98035.73
2022-11-09T16:45:00.197Z,98038.88
2022-11-09T16:47:52.108Z,98046.53
2022-11-09T16:50:43.692Z,98050.59
2022-11-09T16:53:33.035Z,98060.04
2022-11-09T16:56:22.332Z,98065.68
2022-11-09T16:59:12.057Z,98066.64
2022-11-09T17:02:01.672Z,98068.26
2022-11-09T17:04:50.933Z,98077.96
2022-11-09T17:07:42.780Z,98078.38
2022-11-09T17:10:32.514Z,98083.50
2022-11-09T17:13:22.207Z,98087.91
2022-11-09T17:16:17.975Z,98090.89
2022-11-09T17:19:07.262Z,98089.36
2022-11-09T17:21:56.240Z,98088.84
2022-11-09T17:24:45.280Z,98094.41
2022-11-09T17:27:36.298Z,98099.84
2022-11-09T17:30:37.214Z,98109.23
2022-11-09T17:33:26.509Z,98117.61
2022-11-09T17:36:25.926Z,98125.12
2022-11-09T17:39:26.973Z,98131.96
2022-11-09T17:42:16.227Z,98138.77
2022-11-09T17:45:06.676Z,98144.41
2022-11-09T17:47:55.930Z,98143.80
2022-11-09T17:50:45.044Z,98147.64
2022-11-09T17:53:34.343Z,98148.17
2022-11-09T17:56:23.560Z,98150.09
2022-11-09T17:59:12.738Z,98148.89
2022-11-09T18:02:02.342Z,98145.97
2022-11-09T18:04:51.345Z,98144.26
2022-11-09T18:07:40.320Z,98147.35
2022-11-09T18:10:29.434Z,98148.77
2022-11-09T18:13:18.943Z,98151.73
2022-11-09T18:16:17.287Z,98151.92
2022-11-09T18:19:07.540Z,98163.40
2022-11-09T18:21:56.976Z,98164.99
2022-11-09T18:24:51.800Z,98169.39
2022-11-09T18:27:48.240Z,98167.70
2022-11-09T18:30:41.533Z,98168.05
2022-11-09T18:33:30.548Z,98168.57
2022-11-09T18:36:21.437Z,98166.86
2022-11-09T18:39:10.488Z,98167.29
2022-11-09T18:42:00.391Z,98174.98
2022-11-09T18:44:49.363Z,98174.52
2022-11-09T18:47:39.217Z,98175.92
2022-11-09T18:50:28.618Z,98179.39
2022-11-09T18:53:17.905Z,98179.72
2022-11-09T18:56:09.375Z,98189.93
2022-11-09T18:58:59.878Z,98192.89
2022-11-09T19:01:48.663Z,98193.08
2022-11-09T19:04:37.826Z,98198.64
2022-11-09T19:07:28.749Z,98205.10
2022-11-09T19:10:20.125Z,98208.46
2022-11-09T19:13:08.884Z,98211.98
2022-11-09T19:16:02.666Z,98216.73
2022-11-09T19:18:51.676Z,98220.94
2022-11-09T19:21:45.846Z,98221.39
2022-11-09T19:24:35.088Z,98225.95
2022-11-09T19:27:25.067Z,98222.20
2022-11-09T19:30:14.626Z,98229.86
2022-11-09T19:33:04.438Z,98229.38
2022-11-09T19:36:23.128Z,98234.95
2022-11-09T19:39:04.562Z,98240.21
2022-11-09T19:41:54.989Z,98242.15
2022-11-09T19:44:43.966Z,98244.83
2022-11-09T19:47:40.810Z,98251.98
2022-11-09T19:50:29.823Z,98254.11
2022-11-09T19:53:19.498Z,98256.19
2022-11-09T19:56:11.521Z,98258.42
2022-11-09T19:59:01.842Z,98267.49
2022-11-09T20:01:51.216Z,98271.86
2022-11-09T20:04:40.517Z,98281.48
2022-11-09T20:07:30.431Z,98284.35
2022-11-09T20:10:21.376Z,98283.08
2022-11-09T20:13:10.474Z,98286.84
2022-11-09T20:16:03.749Z,98289.43
2022-11-09T20:18:52.902Z,98298.39
2022-11-09T20:21:42.592Z,98301.33
2022-11-09T20:24:31.799Z,98304.27
2022-11-09T20:27:20.924Z,98309.06
2022-11-09T20:30:13.503Z,98315.41
2022-11-09T20:33:04.720Z,98322.89
2022-11-09T20:35:55.539Z,98319.27
2022-11-09T20:38:44.708Z,98320.13
2022-11-09T20:41:34.247Z,98325.38
2022-11-09T20:44:23.411Z,98325.77
2022-11-09T20:47:12.342Z,98328.23
2022-11-09T20:50:01.384Z,98332.98
2022-11-09T20:52:51.658Z,98334.27
2022-11-09T20:55:41.328Z,98333.98
2022-11-09T20:58:30.365Z,98340.09
2022-11-09T21:01:20.632Z,98343.77
2022-11-09T21:04:09.918Z,98346.75
2022-11-09T21:06:59.372Z,98352.70
2022-11-09T21:09:49.056Z,98354.83
2022-11-09T21:12:39.020Z,98364.41
2022-11-09T21:15:28.760Z,98367.95
2022-11-09T21:18:18.038Z,98372.69
2022-11-09T21:21:09.212Z,98377.25
2022-11-09T21:24:16.063Z,98383.70
2022-11-09T21:27:31.018Z,98388.80
2022-11-09T21:30:20.694Z,98397.50
2022-11-09T21:33:09.806Z,98396.38
2022-11-09T21:35:59.111Z,98400.75
2022-11-09T21:38:48.689Z,98407.34
2022-11-09T21:41:40.870Z,98407.92
2022-11-09T21:44:32.636Z,98417.13
2022-11-09T21:47:21.692Z,98417.89
2022-11-09T21:50:12.997Z,98421.73
2022-11-09T21:53:02.668Z,98424.52
2022-11-09T21:55:51.714Z,98427.46
2022-11-09T21:58:40.693Z,98430.92
2022-11-09T22:01:29.673Z,98431.45
2022-11-09T22:04:19.085Z,98439.56
2022-11-09T22:07:09.346Z,98442.02
2022-11-09T22:10:10.048Z,98446.34
2022-11-09T22:13:31.155Z,98449.80
2022-11-09T22:16:20.710Z,98451.89
2022-11-09T22:19:27.493Z,98453.80
2022-11-09T22:22:17.015Z,98457.98
2022-11-09T22:25:07.055Z,98462.14
2022-11-09T22:27:56.513Z,98463.04
2022-11-09T22:30:45.522Z,98465.30
2022-11-09T22:33:35.142Z,98472.71
2022-11-09T22:36:24.276Z,98474.98
2022-11-09T22:39:13.414Z,98480.83
2022-11-09T22:42:02.406Z,98485.49
2022-11-09T22:44:51.581Z,98486.56
2022-11-09T22:47:40.916Z,98484.86
2022-11-09T22:50:30.170Z,98486.09
2022-11-09T22:53:19.470Z,98491.09
2022-11-09T22:56:10.338Z,98498.86
2022-11-09T22:58:59.504Z,98503.86
2022-11-09T23:01:49.266Z,98512.84
2022-11-09T23:04:38.521Z,98515.58
2022-11-09T23:07:30.373Z,98519.39
2022-11-09T23:10:22.637Z,98517.66
2022-11-09T23:13:13.661Z,98524.05
2022-11-09T23:16:03.442Z,98524.23
2022-11-09T23:18:55.337Z,98528.70
2022-11-09T23:21:44.429Z,98524.08
2022-11-09T23:24:50.735Z,98524.95
2022-11-09T23:27:39.914Z,98528.75
2022-11-09T23:30:29.007Z,98530.12
2022-11-09T23:33:18.558Z,98524.11
2022-11-09T23:36:09.923Z,98528.24
2022-11-09T23:38:59.051Z,98526.34
2022-11-09T23:41:48.364Z,98528.41
2022-11-09T23:44:37.193Z,98532.02
2022-11-09T23:47:26.376Z,98539.10
2022-11-09T23:50:15.351Z,98544.80
2022-11-09T23:53:04.248Z,98543.41
2022-11-09T23:55:53.184Z,98542.20
2022-11-09T23:58:42.224Z,98546.66
